createdAt,value
2019-02-02T00:01:49.954Z,7.10
2019-02-02T00:04:26.526Z,6.23
2019-02-02T00:06:58.936Z,6.83
2019-02-02T00:09:28.583Z,6.90
2019-02-02T00:11:59.092Z,6.80
2019-02-02T00:14:28.653Z,6.97
2019-02-02T00:16:58.007Z,6.83
2019-02-02T00:19:27.430Z,7.80
2019-02-02T00:21:56.886Z,6.73
2019-02-02T00:24:26.258Z,6.33
2019-02-02T00:26:55.527Z,6.70
2019-02-02T00:29:24.900Z,6.70
2019-02-02T00:31:54.212Z,6.70
2019-02-02T00:34:23.611Z,6.37
2019-02-02T00:36:53.931Z,7.60
2019-02-02T00:39:23.424Z,7.57
2019-02-02T00:41:52.763Z,6.30
2019-02-02T00:44:22.149Z,6.20
2019-02-02T00:46:51.565Z,7.37
2019-02-02T00:49:21.013Z,6.77
2019-02-02T00:51:50.355Z,7.53
2019-02-02T00:54:19.758Z,7.00
2019-02-02T00:56:49.199Z,7.80
2019-02-02T00:59:18.619Z,6.33
2019-02-02T01:01:49.539Z,6.80
2019-02-02T01:04:18.960Z,6.80
2019-02-02T01:06:48.341Z,7.20
2019-02-02T01:09:22.647Z,6.78
2019-02-02T01:11:52.190Z,7.10
2019-02-02T01:14:21.552Z,7.47
2019-02-02T01:16:50.860Z,8.13
2019-02-02T01:19:20.447Z,7.50
2019-02-02T01:21:49.871Z,7.83
2019-02-02T01:24:19.463Z,7.03
2019-02-02T01:26:49.197Z,7.22
2019-02-02T01:29:18.541Z,6.40
2019-02-02T01:31:47.919Z,7.27
2019-02-02T01:34:17.229Z,7.40
2019-02-02T01:36:46.660Z,7.03
2019-02-02T01:39:16.038Z,8.00
2019-02-02T01:41:45.370Z,6.50
2019-02-02T01:44:14.730Z,6.37
2019-02-02T01:46:44.212Z,7.93
2019-02-02T01:49:13.754Z,6.73
2019-02-02T01:51:43.313Z,6.37
2019-02-02T01:54:12.683Z,6.70
2019-02-02T01:56:42.034Z,6.20
2019-02-02T01:59:11.442Z,7.83
2019-02-02T02:01:41.726Z,6.90
2019-02-02T02:04:13.456Z,6.50
2019-02-02T02:06:43.040Z,7.22
2019-02-02T02:09:12.501Z,6.40
2019-02-02T02:11:43.254Z,5.30
2019-02-02T02:14:12.822Z,6.35
2019-02-02T02:16:42.110Z,6.13
2019-02-02T02:19:12.413Z,6.75
2019-02-02T02:21:41.820Z,6.97
2019-02-02T02:24:11.095Z,6.08
2019-02-02T02:26:40.415Z,6.70
2019-02-02T02:29:09.845Z,6.57
2019-02-02T02:31:39.144Z,6.90
2019-02-02T02:34:08.666Z,5.72
2019-02-02T02:36:37.939Z,6.90
2019-02-02T02:39:09.054Z,6.40
2019-02-02T02:41:38.639Z,7.12
2019-02-02T02:44:08.116Z,5.67
2019-02-02T02:46:37.386Z,6.08
2019-02-02T02:49:06.703Z,6.70
2019-02-02T02:51:35.988Z,5.83
2019-02-02T02:54:06.074Z,6.60
2019-02-02T02:56:35.396Z,6.17
2019-02-02T02:59:04.672Z,7.03
2019-02-02T03:01:34.383Z,5.97
2019-02-02T03:04:03.918Z,6.93
2019-02-02T03:06:33.274Z,5.60
2019-02-02T03:09:02.566Z,5.70
2019-02-02T03:11:32.093Z,6.07
2019-02-02T03:14:01.294Z,4.85
2019-02-02T03:16:30.566Z,5.63
2019-02-02T03:19:01.188Z,6.50
2019-02-02T03:21:30.361Z,5.17
2019-02-02T03:23:59.645Z,6.67
2019-02-02T03:26:28.947Z,5.07
2019-02-02T03:28:58.285Z,5.60
2019-02-02T03:31:27.558Z,6.83
2019-02-02T03:33:56.839Z,5.67
2019-02-02T03:36:26.007Z,6.07
2019-02-02T03:38:55.349Z,5.47
2019-02-02T03:41:24.677Z,4.93
2019-02-02T03:43:53.949Z,6.13
2019-02-02T03:46:23.210Z,5.33
2019-02-02T03:48:52.710Z,5.63
2019-02-02T03:51:21.973Z,6.35
2019-02-02T03:53:53.113Z,6.00
2019-02-02T03:56:22.390Z,6.87
2019-02-02T03:58:51.674Z,7.10
2019-02-02T04:01:20.976Z,6.83
2019-02-02T04:03:50.306Z,7.67
2019-02-02T04:06:19.593Z,7.50
2019-02-02T04:08:50.366Z,9.30
2019-02-02T04:11:19.715Z,9.40
2019-02-02T04:13:49.034Z,10.67
2019-02-02T04:16:18.325Z,11.10
2019-02-02T04:18:47.611Z,10.87
2019-02-02T04:21:16.915Z,11.40
2019-02-02T04:23:46.208Z,11.00
2019-02-02T04:26:15.710Z,9.40
2019-02-02T04:28:45.270Z,9.60
2019-02-02T04:31:17.482Z,10.97
2019-02-02T04:33:46.718Z,10.20
2019-02-02T04:36:16.321Z,9.95
2019-02-02T04:38:45.565Z,15.97
2019-02-02T04:41:14.846Z,15.60
2019-02-02T04:43:44.090Z,15.83
2019-02-02T04:46:13.419Z,13.63
2019-02-02T04:48:42.778Z,13.70
2019-02-02T04:51:12.114Z,17.03
2019-02-02T04:53:41.379Z,12.70
2019-02-02T04:56:10.852Z,13.93
2019-02-02T04:58:40.180Z,14.20
2019-02-02T05:01:09.366Z,11.10
2019-02-02T05:03:39.006Z,14.50
2019-02-02T05:06:08.294Z,12.53
2019-02-02T05:08:37.525Z,15.27
2019-02-02T05:11:06.805Z,15.27
2019-02-02T05:13:36.065Z,12.77
2019-02-02T05:16:05.375Z,12.27
2019-02-02T05:18:34.922Z,14.90
2019-02-02T05:21:04.219Z,13.27
2019-02-02T05:23:33.472Z,11.73
2019-02-02T05:26:02.831Z,12.30
2019-02-02T05:28:32.075Z,12.87
2019-02-02T05:31:04.157Z,11.20
2019-02-02T05:33:33.409Z,12.63
2019-02-02T05:36:03.015Z,10.85
2019-02-02T05:38:32.498Z,9.85
2019-02-02T05:41:01.715Z,12.00
2019-02-02T05:43:31.090Z,11.63
2019-02-02T05:46:01.796Z,10.67
2019-02-02T05:48:31.228Z,12.20
2019-02-02T05:51:00.672Z,10.10
2019-02-02T05:53:30.081Z,11.90
2019-02-02T05:56:00.714Z,10.70
2019-02-02T05:58:30.135Z,15.07
2019-02-02T06:00:59.575Z,9.37
2019-02-02T06:03:29.013Z,12.50
2019-02-02T06:05:59.995Z,12.00
2019-02-02T06:08:29.448Z,12.87
2019-02-02T06:11:05.455Z,12.77
2019-02-02T06:13:30.544Z,13.07
2019-02-02T06:16:00.070Z,13.40
2019-02-02T06:18:30.859Z,13.80
2019-02-02T06:21:00.368Z,15.80
2019-02-02T06:23:32.990Z,15.97
2019-02-02T06:26:02.430Z,16.03
2019-02-02T06:28:35.832Z,18.37
2019-02-02T06:31:08.174Z,18.50
2019-02-02T06:33:39.474Z,13.08
2019-02-02T06:36:08.928Z,12.70
2019-02-02T06:38:38.624Z,13.23
2019-02-02T06:41:08.126Z,13.23
2019-02-02T06:43:37.637Z,13.32
2019-02-02T06:46:11.035Z,11.27
2019-02-02T06:48:42.406Z,10.70
2019-02-02T06:51:17.509Z,13.38
2019-02-02T06:53:47.650Z,12.10
2019-02-02T06:56:17.591Z,11.80
2019-02-02T06:58:47.191Z,11.90
2019-02-02T07:01:16.770Z,13.70
2019-02-02T07:03:46.210Z,13.20
2019-02-02T07:06:19.440Z,12.40
2019-02-02T07:08:50.264Z,11.00
2019-02-02T07:11:21.833Z,13.03
2019-02-02T07:13:51.562Z,11.97
2019-02-02T07:16:20.985Z,11.50
2019-02-02T07:18:50.355Z,14.00
2019-02-02T07:21:19.828Z,10.73
2019-02-02T07:23:51.724Z,11.07
2019-02-02T07:26:21.358Z,12.40
2019-02-02T07:28:53.096Z,12.30
2019-02-02T07:31:22.550Z,10.17
2019-02-02T07:33:54.801Z,10.80
2019-02-02T07:36:26.369Z,12.43
2019-02-02T07:38:55.891Z,12.27
2019-02-02T07:41:28.689Z,11.50
2019-02-02T07:43:58.494Z,6.30
2019-02-02T07:46:28.112Z,9.23
2019-02-02T07:49:26.629Z,10.07
2019-02-02T07:51:56.181Z,9.63
2019-02-02T07:54:26.103Z,11.17
2019-02-02T07:56:58.338Z,10.80
2019-02-02T07:59:26.745Z,11.23
2019-02-02T08:01:56.267Z,10.00
2019-02-02T08:04:25.620Z,10.20
2019-02-02T08:06:55.144Z,9.40
2019-02-02T08:09:25.861Z,11.03
2019-02-02T08:12:02.840Z,10.50
2019-02-02T08:14:32.569Z,10.50
2019-02-02T08:17:01.983Z,10.83
2019-02-02T08:19:31.371Z,10.90
2019-02-02T08:22:01.790Z,10.83
2019-02-02T08:24:31.716Z,9.77
2019-02-02T08:27:01.554Z,8.37
2019-02-02T08:29:33.783Z,10.07
2019-02-02T08:32:05.275Z,9.13
2019-02-02T08:34:34.867Z,10.03
2019-02-02T08:37:07.232Z,8.43
2019-02-02T08:39:36.784Z,8.80
2019-02-02T08:42:06.354Z,9.30
2019-02-02T08:44:37.268Z,8.23
2019-02-02T08:47:07.384Z,8.90
2019-02-02T08:49:40.326Z,8.63
2019-02-02T08:52:12.686Z,8.50
2019-02-02T08:54:54.907Z,8.87
2019-02-02T08:57:24.863Z,8.73
2019-02-02T08:59:55.670Z,9.50
2019-02-02T09:02:25.219Z,9.20
2019-02-02T09:04:58.993Z,10.20
2019-02-02T09:07:30.232Z,8.40
2019-02-02T09:10:05.590Z,9.47
2019-02-02T09:12:33.532Z,8.00
2019-02-02T09:15:12.742Z,8.58
2019-02-02T09:17:45.424Z,9.27
2019-02-02T09:20:18.074Z,8.10
2019-02-02T09:22:47.795Z,8.90
2019-02-02T09:25:18.194Z,9.75
2019-02-02T09:27:49.994Z,9.27
2019-02-02T09:30:35.491Z,9.20
2019-02-02T09:33:05.847Z,9.27
2019-02-02T09:35:38.150Z,7.58
2019-02-02T09:38:07.622Z,8.30
2019-02-02T09:40:45.920Z,9.13
2019-02-02T09:43:33.030Z,10.37
2019-02-02T09:46:11.042Z,9.93
2019-02-02T09:48:42.296Z,9.90
2019-02-02T09:51:12.062Z,13.23
2019-02-02T09:54:02.236Z,10.73
2019-02-02T09:56:25.530Z,13.22
2019-02-02T09:58:55.033Z,13.60
2019-02-02T10:01:27.816Z,11.30
2019-02-02T10:04:10.736Z,11.73
2019-02-02T10:06:44.483Z,11.20
2019-02-02T10:09:16.530Z,16.27
2019-02-02T10:11:47.548Z,17.12
2019-02-02T10:14:21.693Z,17.47
2019-02-02T10:16:55.661Z,18.93
2019-02-02T10:19:32.402Z,19.57
2019-02-02T10:22:01.893Z,19.20
2019-02-02T10:24:33.828Z,17.37
2019-02-02T10:27:08.862Z,18.50
2019-02-02T10:29:44.493Z,18.50
2019-02-02T10:32:16.766Z,18.30
2019-02-02T10:34:49.717Z,21.55
2019-02-02T10:37:21.566Z,22.83
2019-02-02T10:40:03.198Z,21.00
2019-02-02T10:42:33.590Z,21.43
2019-02-02T10:45:05.011Z,28.90
2019-02-02T10:47:46.010Z,19.80
2019-02-02T10:50:24.969Z,19.80
2019-02-02T10:52:54.628Z,22.20
2019-02-02T10:55:24.691Z,18.97
2019-02-02T10:58:03.210Z,23.60
2019-02-02T11:00:37.664Z,30.10
2019-02-02T11:03:07.255Z,34.20
2019-02-02T11:05:46.337Z,33.70
2019-02-02T11:08:13.168Z,36.27
2019-02-02T11:10:42.847Z,32.77
2019-02-02T11:13:12.355Z,27.10
2019-02-02T11:15:44.128Z,22.70
2019-02-02T11:18:13.266Z,18.53
2019-02-02T11:20:42.618Z,27.90
2019-02-02T11:23:12.022Z,25.17
2019-02-02T11:25:41.399Z,22.63
2019-02-02T11:28:10.777Z,19.30
2019-02-02T11:30:40.215Z,16.77
2019-02-02T11:33:09.903Z,19.27
2019-02-02T11:35:39.292Z,23.27
2019-02-02T11:38:08.706Z,23.53
2019-02-02T11:40:38.147Z,21.73
2019-02-02T11:43:07.542Z,20.70
2019-02-02T11:45:36.923Z,19.67
2019-02-02T11:48:06.254Z,19.00
2019-02-02T11:50:35.715Z,21.10
2019-02-02T11:53:05.147Z,20.70
2019-02-02T11:55:34.613Z,19.10
2019-02-02T11:58:03.993Z,20.20
2019-02-02T12:00:35.591Z,20.67
2019-02-02T12:03:05.060Z,18.80
2019-02-02T12:05:35.689Z,21.90
2019-02-02T12:08:05.144Z,22.30
2019-02-02T12:10:34.534Z,21.57
2019-02-02T12:13:04.205Z,21.30
2019-02-02T12:15:33.418Z,17.67
2019-02-02T12:18:02.620Z,22.37
2019-02-02T12:20:33.377Z,17.50
2019-02-02T12:23:03.019Z,21.30
2019-02-02T12:25:32.375Z,22.73
2019-02-02T12:28:01.801Z,19.90
2019-02-02T12:30:33.212Z,19.20
2019-02-02T12:33:03.413Z,21.00
2019-02-02T12:35:33.123Z,20.23
2019-02-02T12:38:02.404Z,21.20
2019-02-02T12:40:31.813Z,20.10
2019-02-02T12:43:01.258Z,23.20
2019-02-02T12:45:33.264Z,18.03
2019-02-02T12:48:02.565Z,18.50
2019-02-02T12:50:31.741Z,20.10
2019-02-02T12:53:01.021Z,19.50
2019-02-02T12:55:30.573Z,17.37
2019-02-02T12:58:01.278Z,17.60
2019-02-02T13:00:30.851Z,14.30
2019-02-02T13:03:00.208Z,13.53
2019-02-02T13:05:29.734Z,19.10
2019-02-02T13:15:06.801Z,17.60
2019-02-02T13:17:36.094Z,14.97
2019-02-02T13:20:08.876Z,17.70
2019-02-02T13:22:38.156Z,16.80
2019-02-02T13:25:10.082Z,16.00
2019-02-02T13:27:39.425Z,16.07
2019-02-02T13:30:12.414Z,15.60
2019-02-02T13:32:49.354Z,15.40
2019-02-02T13:35:14.939Z,15.43
2019-02-02T13:37:44.301Z,22.60
2019-02-02T13:40:15.969Z,21.10
2019-02-02T13:42:45.523Z,18.10
2019-02-02T13:45:16.398Z,22.07
2019-02-02T13:47:45.658Z,18.07
2019-02-02T13:50:16.230Z,21.10
2019-02-02T13:52:48.724Z,21.73
2019-02-02T13:55:18.429Z,29.10
2019-02-02T13:57:47.605Z,25.30
2019-02-02T14:00:21.645Z,25.00
2019-02-02T14:03:02.442Z,25.67
2019-02-02T14:05:22.268Z,21.82
2019-02-02T14:07:53.541Z,22.58
2019-02-02T14:10:30.114Z,19.57
2019-02-02T14:13:02.601Z,20.63
2019-02-02T14:15:33.416Z,19.10
2019-02-02T14:18:02.848Z,14.63
2019-02-02T14:20:33.929Z,16.90
2019-02-02T14:23:03.306Z,15.90
2019-02-02T14:25:32.840Z,17.17
2019-02-02T14:28:02.358Z,14.40
2019-02-02T14:30:31.678Z,14.30
2019-02-02T14:33:12.981Z,18.30
2019-02-02T14:35:32.134Z,16.30
2019-02-02T14:38:01.451Z,14.87
2019-02-02T14:40:30.942Z,15.33
2019-02-02T14:43:00.503Z,15.83
2019-02-02T14:45:30.129Z,14.03
2019-02-02T14:47:59.417Z,13.27
2019-02-02T14:50:31.847Z,14.97
2019-02-02T14:53:00.377Z,12.65
2019-02-02T14:55:30.201Z,14.80
2019-02-02T14:58:03.124Z,15.23
2019-02-02T15:00:32.437Z,15.87
2019-02-02T15:03:03.331Z,13.87
2019-02-02T15:05:42.654Z,13.43
2019-02-02T15:08:04.023Z,14.33
2019-02-02T15:10:33.570Z,12.43
2019-02-02T15:13:03.169Z,14.53
2019-02-02T15:15:32.477Z,14.03
2019-02-02T15:18:01.775Z,13.13
2019-02-02T15:20:33.233Z,14.03
2019-02-02T15:23:02.697Z,14.67
2019-02-02T15:25:32.304Z,12.53
2019-02-02T15:28:01.575Z,13.50
2019-02-02T15:30:31.081Z,12.00
2019-02-02T15:33:00.606Z,16.70
2019-02-02T15:35:29.913Z,10.90
2019-02-02T15:37:59.152Z,11.73
2019-02-02T15:40:31.485Z,13.93
2019-02-02T15:42:59.882Z,10.80
2019-02-02T15:45:29.940Z,9.77
2019-02-02T15:47:59.142Z,10.50
2019-02-02T15:50:28.681Z,9.53
2019-02-02T15:52:57.947Z,11.10
2019-02-02T15:55:27.274Z,11.40
2019-02-02T15:57:56.531Z,10.70
2019-02-02T16:00:33.580Z,11.90
2019-02-02T16:03:03.221Z,11.35
2019-02-02T16:05:33.294Z,11.90
2019-02-02T16:08:04.863Z,10.58
2019-02-02T16:10:34.397Z,11.53
2019-02-02T16:13:08.468Z,12.80
2019-02-02T16:15:37.883Z,12.40
2019-02-02T16:18:07.464Z,12.03
2019-02-02T16:20:41.918Z,11.55
2019-02-02T16:23:10.338Z,11.35
2019-02-02T16:25:39.985Z,11.33
2019-02-02T16:28:09.267Z,10.00
2019-02-02T16:30:38.641Z,12.83
2019-02-02T16:33:08.168Z,11.90
2019-02-02T16:35:37.454Z,11.83
2019-02-02T16:38:06.999Z,9.58
2019-02-02T16:40:36.277Z,10.18
2019-02-02T16:43:05.905Z,10.45
2019-02-02T16:45:35.631Z,10.95
2019-02-02T16:48:05.776Z,11.68
2019-02-02T16:50:35.337Z,10.82
2019-02-02T16:53:04.888Z,10.20
2019-02-02T16:55:34.453Z,10.75
2019-02-02T16:58:04.465Z,12.63
2019-02-02T17:00:33.975Z,10.82
2019-02-02T17:03:03.570Z,11.12
2019-02-02T17:05:32.891Z,10.77
2019-02-02T17:08:02.280Z,13.10
2019-02-02T17:10:33.754Z,11.53
2019-02-02T17:13:03.582Z,12.68
2019-02-02T17:15:35.170Z,10.97
2019-02-02T17:18:04.870Z,12.20
2019-02-02T17:20:45.045Z,10.20
2019-02-02T17:23:14.678Z,13.50
2019-02-02T17:25:43.970Z,12.95
2019-02-02T17:28:15.917Z,13.80
2019-02-02T17:30:45.190Z,13.80
2019-02-02T17:33:15.878Z,13.27
2019-02-02T17:35:45.892Z,14.38
2019-02-02T17:38:15.472Z,13.90
2019-02-02T17:40:44.713Z,15.03
2019-02-02T17:43:13.984Z,15.20
2019-02-02T17:45:43.577Z,13.98
2019-02-02T17:48:13.401Z,19.90
2019-02-02T17:50:43.474Z,17.65
2019-02-02T17:53:13.163Z,14.75
2019-02-02T17:55:43.858Z,18.57
2019-02-02T17:58:13.634Z,16.50
2019-02-02T18:00:51.820Z,16.17
2019-02-02T18:03:21.353Z,13.37
2019-02-02T18:05:50.929Z,14.40
2019-02-02T18:08:22.958Z,14.50
2019-02-02T18:10:52.163Z,14.50
2019-02-02T18:13:21.766Z,17.00
2019-02-02T18:15:51.159Z,14.85
2019-02-02T18:18:21.782Z,16.33
2019-02-02T18:20:51.054Z,17.30
2019-02-02T18:23:20.598Z,13.80
2019-02-02T18:25:49.974Z,16.97
2019-02-02T18:28:19.462Z,16.20
2019-02-02T18:30:49.027Z,16.85
2019-02-02T18:33:18.643Z,17.37
2019-02-02T18:35:47.893Z,14.93
2019-02-02T18:38:17.925Z,15.83
2019-02-02T18:40:47.479Z,16.37
2019-02-02T18:43:17.464Z,13.83
2019-02-02T18:45:47.060Z,15.60
2019-02-02T18:48:16.631Z,16.97
2019-02-02T18:50:47.833Z,17.92
2019-02-02T18:53:17.743Z,18.40
2019-02-02T18:55:51.138Z,15.85
2019-02-02T18:58:23.495Z,20.12
2019-02-02T19:00:52.587Z,22.42
2019-02-02T19:03:23.376Z,19.27
2019-02-02T19:05:52.754Z,24.30
2019-02-02T19:08:22.393Z,21.20
2019-02-02T19:10:51.638Z,29.35
2019-02-02T19:13:21.263Z,26.75
2019-02-02T19:15:50.846Z,29.42
2019-02-02T19:18:20.899Z,29.25
2019-02-02T19:20:50.578Z,23.10
2019-02-02T19:23:25.159Z,20.82
2019-02-02T19:25:51.416Z,25.55
2019-02-02T19:28:21.595Z,21.50
2019-02-02T19:30:53.554Z,27.93
2019-02-02T19:33:24.148Z,30.60
2019-02-02T19:35:54.651Z,25.02
2019-02-02T19:38:25.502Z,26.35
2019-02-02T19:40:55.153Z,26.87
2019-02-02T19:43:26.113Z,28.73
2019-02-02T19:45:56.232Z,31.77
2019-02-02T19:48:26.318Z,25.37
2019-02-02T19:50:56.525Z,30.90
2019-02-02T19:53:26.213Z,24.32
2019-02-02T19:55:55.778Z,27.52
2019-02-02T19:58:25.465Z,36.58
2019-02-02T20:00:55.054Z,32.25
2019-02-02T20:03:24.925Z,26.42
2019-02-02T20:05:54.955Z,36.98
2019-02-02T20:08:24.496Z,40.20
2019-02-02T20:10:55.899Z,35.63
2019-02-02T20:13:26.119Z,43.75
2019-02-02T20:15:56.736Z,41.55
2019-02-02T20:18:27.103Z,38.38
2019-02-02T20:20:57.037Z,47.35
2019-02-02T20:23:26.970Z,41.85
2019-02-02T20:25:56.950Z,41.02
2019-02-02T20:28:26.541Z,46.83
2019-02-02T20:30:55.949Z,38.70
2019-02-02T20:33:26.282Z,32.65
2019-02-02T20:35:56.052Z,44.23
2019-02-02T20:38:26.220Z,46.13
2019-02-02T20:40:55.874Z,40.85
2019-02-02T20:43:25.543Z,41.58
2019-02-02T20:45:55.887Z,41.40
2019-02-02T20:48:30.366Z,38.58
2019-02-02T20:51:00.806Z,47.17
2019-02-02T20:53:30.358Z,31.48
2019-02-02T20:55:59.996Z,54.63
2019-02-02T20:58:30.061Z,51.25
2019-02-02T21:01:04.222Z,62.75
2019-02-02T21:03:34.053Z,51.90
2019-02-02T21:06:03.645Z,53.30
2019-02-02T21:08:33.323Z,46.00
2019-02-02T21:11:03.437Z,43.92
2019-02-02T21:13:36.689Z,36.58
2019-02-02T21:16:05.277Z,47.48
2019-02-02T21:18:34.968Z,46.75
2019-02-02T21:21:06.092Z,50.75
2019-02-02T21:23:38.718Z,49.73
2019-02-02T21:26:08.373Z,54.95
2019-02-02T21:28:49.776Z,47.13
2019-02-02T21:31:09.822Z,40.75
2019-02-02T21:33:39.704Z,41.23
2019-02-02T21:36:09.265Z,51.20
2019-02-02T21:38:38.862Z,49.77
2019-02-02T21:41:09.262Z,46.65
2019-02-02T21:43:39.067Z,42.90
2019-02-02T21:46:08.791Z,50.58
2019-02-02T21:48:38.366Z,49.35
2019-02-02T21:51:07.894Z,56.13
2019-02-02T21:53:38.209Z,47.35
2019-02-02T21:56:07.717Z,43.50
2019-02-02T21:58:46.873Z,44.67
2019-02-02T22:01:23.838Z,43.55
2019-02-02T22:03:47.837Z,43.15
2019-02-02T22:06:17.487Z,40.50
2019-02-02T22:08:47.237Z,41.58
2019-02-02T22:11:16.760Z,35.50
2019-02-02T22:13:48.017Z,45.33
2019-02-02T22:16:17.575Z,36.08
2019-02-02T22:18:47.082Z,49.80
2019-02-02T22:21:16.725Z,40.52
2019-02-02T22:23:46.321Z,36.75
2019-02-02T22:26:16.345Z,36.98
2019-02-02T22:28:45.949Z,29.40
2019-02-02T22:31:15.479Z,29.40
2019-02-02T22:33:45.305Z,26.25
2019-02-02T22:36:26.645Z,24.32
2019-02-02T22:38:49.058Z,33.75
2019-02-02T22:41:18.589Z,28.12
2019-02-02T22:43:48.119Z,32.75
2019-02-02T22:46:17.913Z,28.73
2019-02-02T22:48:47.478Z,35.50
2019-02-02T22:51:17.058Z,26.15
2019-02-02T22:53:46.641Z,29.40
2019-02-02T22:56:16.233Z,26.60
2019-02-02T22:58:45.796Z,28.30
2019-02-02T23:01:45.042Z,24.30
2019-02-02T23:05:01.761Z,26.35
2019-02-02T23:08:13.117Z,26.17
2019-02-02T23:11:07.509Z,23.87
2019-02-02T23:14:27.224Z,21.48
2019-02-02T23:16:56.827Z,18.98
2019-02-02T23:19:26.093Z,19.00
2019-02-02T23:21:55.679Z,21.77
2019-02-02T23:24:25.262Z,20.23
2019-02-02T23:26:54.630Z,21.40
2019-02-02T23:29:25.522Z,24.67
2019-02-02T23:31:55.757Z,21.75
2019-02-02T23:34:25.373Z,17.82
2019-02-02T23:36:55.422Z,19.00
2019-02-02T23:39:26.498Z,21.80
2019-02-02T23:41:56.179Z,20.15
2019-02-02T23:44:25.801Z,17.02
2019-02-02T23:46:55.489Z,20.65
2019-02-02T23:49:25.112Z,23.52
2019-02-02T23:51:54.969Z,22.95
2019-02-02T23:54:24.817Z,27.80
2019-02-02T23:56:54.453Z,27.85
2019-02-02T23:59:24.053Z,28.40
